Time;durP1;ratioP1;P1;durP2;ratioP2;P2;SDS_P1;SDS_P2;PMS_P1;PMS_P2;Temp;Humidity;BMP_temperature;BMP_pressure;BME280_temperature;BME280_humidity;BME280_pressure;Samples;Min_cycle;Max_cycle;Signal;HPM_P1;HPM_P2
2021/11/27 00:00:25;;;;;;;24.33;16.85;;;256.00;1971.20;;;;;;5095287;28;20024;-55
2021/11/27 00:02:52;;;;;;;26.33;17.25;;;256.00;1971.20;;;;;;5095214;28;20089;-54
2021/11/27 00:05:20;;;;;;;27.70;17.85;;;256.00;1971.20;;;;;;5095165;28;20036;-55
2021/11/27 00:07:46;;;;;;;23.60;17.20;;;256.00;1945.60;;;;;;5095059;28;20107;-56
2021/11/27 00:10:15;;;;;;;23.77;15.70;;;256.00;1971.20;;;;;;5094862;28;20435;-55
2021/11/27 00:12:41;;;;;;;22.83;15.63;;;256.00;1971.20;;;;;;5095102;28;20023;-55
2021/11/27 00:15:08;;;;;;;24.17;15.13;;;231.30;1945.60;;;;;;5094855;28;20028;-55
2021/11/27 00:17:36;;;;;;;22.50;15.35;;;231.30;1971.20;;;;;;5094749;28;20016;-55
2021/11/27 00:20:04;;;;;;;22.58;14.73;;;231.30;1971.20;;;;;;5094914;28;20057;-56
2021/11/27 00:22:29;;;;;;;21.05;14.45;;;231.30;1945.60;;;;;;5094943;28;20411;-55
2021/11/27 00:24:55;;;;;;;20.85;14.60;;;231.30;1945.60;;;;;;5094438;28;20032;-55
2021/11/27 00:27:21;;;;;;;24.33;15.20;;;231.30;1971.20;;;;;;5094757;28;20208;-55
2021/11/27 00:29:46;;;;;;;21.67;14.40;;;231.30;1945.60;;;;;;5094758;28;20021;-55
2021/11/27 00:32:12;;;;;;;24.13;14.35;;;231.20;1945.60;;;;;;5094092;28;20024;-56
2021/11/27 00:34:38;;;;;;;23.75;14.60;;;231.20;1945.60;;;;;;5094407;28;20028;-56
2021/11/27 00:37:04;;;;;;;22.77;14.32;;;231.10;1945.60;;;;;;5094688;28;20032;-56
2021/11/27 00:39:30;;;;;;;21.95;14.40;;;231.10;1945.60;;;;;;5094550;28;20420;-55
2021/11/27 00:41:56;;;;;;;23.55;14.65;;;231.20;1971.20;;;;;;5094265;28;20024;-55
2021/11/27 00:44:22;;;;;;;20.50;13.70;;;231.10;1945.60;;;;;;5094415;28;20036;-55
2021/11/27 00:46:49;;;;;;;18.45;12.32;;;231.10;1971.20;;;;;;5094458;28;20025;-55
2021/11/27 00:49:16;;;;;;;20.30;13.95;;;231.10;1971.20;;;;;;5094627;28;20024;-55
2021/11/27 00:51:42;;;;;;;17.90;12.35;;;231.10;1971.20;;;;;;5093931;28;20058;-55
2021/11/27 00:54:08;;;;;;;18.88;13.18;;;231.10;1971.20;;;;;;5093964;28;20071;-55
2021/11/27 00:56:35;;;;;;;19.17;12.48;;;231.10;1971.20;;;;;;5094303;28;20031;-55
2021/11/27 00:59:01;;;;;;;20.27;13.13;;;231.20;1945.60;;;;;;5093767;28;20458;-55
2021/11/27 01:01:30;;;;;;;18.02;12.73;;;231.10;1945.60;;;;;;5094071;28;20031;-55
2021/11/27 01:03:56;;;;;;;17.85;12.43;;;231.10;1971.20;;;;;;5094130;28;20038;-55
2021/11/27 01:06:25;;;;;;;19.65;13.32;;;231.10;1945.60;;;;;;5093564;28;20028;-55
2021/11/27 01:08:53;;;;;;;19.17;12.68;;;231.10;1971.20;;;;;;5093989;28;20035;-55
2021/11/27 01:11:49;;;;;;;19.60;12.35;;;231.10;1971.20;;;;;;5093733;28;20032;-55
2021/11/27 01:14:19;;;;;;;18.15;12.05;;;231.10;1945.60;;;;;;5093294;28;20039;-55
2021/11/27 01:16:48;;;;;;;20.20;12.00;;;231.10;1971.20;;;;;;5093894;28;20036;-55
2021/11/27 01:19:15;;;;;;;16.98;11.65;;;231.10;1945.60;;;;;;5093954;28;20042;-55
2021/11/27 01:21:45;;;;;;;18.65;12.32;;;231.10;1945.60;;;;;;5094130;28;20028;-55
2021/11/27 01:24:13;;;;;;;20.08;11.80;;;231.10;1971.20;;;;;;5093568;28;20465;-55
2021/11/27 01:26:40;;;;;;;20.17;12.82;;;231.10;1945.60;;;;;;5093928;28;20074;-55
2021/11/27 01:29:06;;;;;;;21.15;13.65;;;231.10;1945.60;;;;;;5093756;28;20024;-55
2021/11/27 01:31:33;;;;;;;25.77;14.13;;;231.10;1971.20;;;;;;5093801;28;20024;-56
2021/11/27 01:33:59;;;;;;;22.27;14.60;;;231.10;1920.00;;;;;;5093796;28;20077;-56
2021/11/27 01:36:25;;;;;;;22.40;14.57;;;231.10;1945.60;;;;;;5093536;28;20017;-55
2021/11/27 01:38:51;;;;;;;23.42;12.75;;;231.00;1945.60;;;;;;5091896;28;20032;-55
2021/11/27 01:41:17;;;;;;;20.60;11.93;;;231.00;1945.60;;;;;;5094034;28;20085;-54
2021/11/27 01:43:44;;;;;;;20.45;12.23;;;231.00;1945.60;;;;;;5093730;28;20059;-55
2021/11/27 01:46:11;;;;;;;22.02;12.20;;;231.00;1945.60;;;;;;5093921;28;20460;-55
2021/11/27 01:48:38;;;;;;;20.65;12.93;;;231.00;1945.60;;;;;;5093617;28;20450;-55
2021/11/27 01:51:23;;;;;;;24.15;12.90;;;231.00;1971.20;;;;;;5093607;28;20381;-55
2021/11/27 01:53:53;;;;;;;20.95;12.50;;;231.00;1945.60;;;;;;5089052;28;20032;-55
2021/11/27 01:56:27;;;;;;;15.73;10.90;;;231.00;1945.60;;;;;;5073305;28;20021;-55
2021/11/27 01:58:53;;;;;;;16.85;10.95;;;231.00;1971.20;;;;;;5073431;28;20032;-56
2021/11/27 02:01:24;;;;;;;14.35;9.35;;;231.00;1945.60;;;;;;5073141;28;20086;-55
2021/11/27 02:03:49;;;;;;;13.23;9.10;;;231.00;1945.60;;;;;;5073189;28;20021;-55
2021/11/27 02:06:19;;;;;;;13.18;8.98;;;230.90;1971.20;;;;;;5073119;28;20032;-55
2021/11/27 02:08:49;;;;;;;11.77;8.50;;;230.90;1945.60;;;;;;5073141;28;20508;-55
2021/11/27 02:11:17;;;;;;;12.60;8.63;;;230.90;1945.60;;;;;;5073376;28;20039;-55
2021/11/27 02:13:43;;;;;;;13.38;8.57;;;230.80;1945.60;;;;;;5073275;28;20029;-55
2021/11/27 02:16:10;;;;;;;12.15;8.90;;;230.80;1920.00;;;;;;5073165;28;20021;-55
2021/11/27 02:18:36;;;;;;;12.50;8.20;;;230.80;1945.60;;;;;;5075706;28;20016;-55
2021/11/27 02:21:06;;;;;;;12.40;7.93;;;230.80;1945.60;;;;;;5076976;28;20036;-55
2021/11/27 02:23:32;;;;;;;9.73;7.57;;;230.80;1920.00;;;;;;5076577;28;20031;-55
2021/11/27 02:26:03;;;;;;;11.18;7.90;;;230.80;1920.00;;;;;;5076945;28;20024;-55
2021/11/27 02:28:29;;;;;;;12.85;7.75;;;230.80;1945.60;;;;;;5076568;28;20366;-56
2021/11/27 02:30:55;;;;;;;10.55;7.57;;;230.70;1920.00;;;;;;5076720;28;20020;-54
2021/11/27 02:33:21;;;;;;;11.25;7.78;;;230.70;1945.60;;;;;;5074678;28;20045;-55
2021/11/27 02:35:47;;;;;;;8.85;7.15;;;230.70;1920.00;;;;;;5076553;28;20025;-56
2021/11/27 02:38:13;;;;;;;9.45;7.03;;;230.70;1920.00;;;;;;5074892;28;20481;-56
2021/11/27 02:40:41;;;;;;;10.25;7.28;;;230.70;1945.60;;;;;;5076407;28;20133;-55
2021/11/27 02:43:07;;;;;;;10.25;7.88;;;230.70;1920.00;;;;;;5076550;28;20036;-55
2021/11/27 02:45:33;;;;;;;9.38;7.72;;;230.60;1920.00;;;;;;5076690;28;20051;-55
2021/11/27 02:47:59;;;;;;;10.00;8.07;;;230.60;1920.00;;;;;;5076065;28;20510;-55
2021/11/27 02:50:25;;;;;;;10.48;6.97;;;230.60;1920.00;;;;;;5076268;28;20067;-56
2021/11/27 02:52:51;;;;;;;9.85;7.22;;;230.60;1920.00;;;;;;5076217;28;20013;-55
2021/11/27 02:55:17;;;;;;;10.48;7.78;;;230.60;1945.60;;;;;;5076055;28;20098;-55
2021/11/27 02:57:43;;;;;;;9.23;7.22;;;230.60;1920.00;;;;;;5076151;28;20024;-57
2021/11/27 03:00:14;;;;;;;9.07;6.85;;;230.50;1920.00;;;;;;5076065;28;20016;-56
2021/11/27 03:02:41;;;;;;;8.63;6.95;;;230.50;1945.60;;;;;;5076272;28;20055;-55
2021/11/27 03:05:07;;;;;;;10.60;7.82;;;230.50;1920.00;;;;;;5075809;28;20036;-55
2021/11/27 03:07:33;;;;;;;10.43;7.78;;;230.40;1920.00;;;;;;5076116;28;20059;-55
2021/11/27 03:09:59;;;;;;;11.52;8.52;;;230.40;1920.00;;;;;;5075830;28;20028;-55
2021/11/27 03:12:26;;;;;;;11.68;9.10;;;230.40;1868.80;;;;;;5075877;28;20029;-55
2021/11/27 03:14:51;;;;;;;14.80;10.13;;;230.40;1894.40;;;;;;5075976;28;20056;-55
2021/11/27 03:17:17;;;;;;;13.25;9.10;;;230.40;1894.40;;;;;;5075844;28;20043;-55
2021/11/27 03:19:45;;;;;;;14.43;10.05;;;205.60;1868.80;;;;;;5075885;28;20035;-55
2021/11/27 03:22:14;;;;;;;16.00;11.25;;;205.60;1920.00;;;;;;5075731;28;20020;-55
2021/11/27 03:24:40;;;;;;;13.48;10.07;;;205.60;1920.00;;;;;;5075751;28;20041;-55
2021/11/27 03:27:06;;;;;;;15.27;10.82;;;205.60;1894.40;;;;;;5075336;28;20028;-55
2021/11/27 03:29:33;;;;;;;16.40;11.40;;;205.60;1920.00;;;;;;5075002;28;20033;-55
2021/11/27 03:32:05;;;;;;;18.75;11.43;;;205.50;1920.00;;;;;;5075604;28;20035;-55
2021/11/27 03:34:31;;;;;;;15.05;11.57;;;205.50;1894.40;;;;;;5075469;28;20039;-55
2021/11/27 03:36:56;;;;;;;18.75;11.73;;;205.50;1920.00;;;;;;5075478;28;20025;-55
2021/11/27 03:39:22;;;;;;;16.80;11.80;;;205.50;1920.00;;;;;;5075144;28;20035;-55
2021/11/27 03:41:48;;;;;;;19.75;12.60;;;205.40;1894.40;;;;;;5075715;28;20070;-55
2021/11/27 03:44:14;;;;;;;20.27;12.30;;;205.40;1920.00;;;;;;5075180;28;20032;-55
2021/11/27 03:46:40;;;;;;;17.23;12.07;;;205.40;1920.00;;;;;;5075049;28;20028;-55
2021/11/27 03:49:07;;;;;;;17.95;12.80;;;205.40;1920.00;;;;;;5075169;28;20024;-55
2021/11/27 03:51:33;;;;;;;18.42;12.75;;;205.40;1920.00;;;;;;5074940;28;20024;-55
2021/11/27 03:53:59;;;;;;;17.33;12.27;;;205.40;1894.40;;;;;;5074855;28;20036;-55
2021/11/27 03:56:29;;;;;;;19.27;13.18;;;205.40;1920.00;;;;;;5075227;28;20032;-55
2021/11/27 03:58:58;;;;;;;17.38;12.60;;;205.40;1920.00;;;;;;5074940;28;20043;-55
2021/11/27 04:01:24;;;;;;;18.88;13.57;;;205.40;1920.00;;;;;;5074805;28;20028;-55
2021/11/27 04:03:53;;;;;;;19.08;13.05;;;205.30;1920.00;;;;;;5074777;28;20089;-55
2021/11/27 04:06:19;;;;;;;18.40;12.80;;;205.30;1920.00;;;;;;5074760;28;20036;-56
2021/11/27 04:08:46;;;;;;;19.27;12.93;;;205.40;1894.40;;;;;;5074798;28;20028;-56
2021/11/27 04:11:12;;;;;;;18.52;12.88;;;205.40;1920.00;;;;;;5074861;28;20095;-55
2021/11/27 04:13:38;;;;;;;21.17;13.52;;;205.40;1894.40;;;;;;5074741;28;20029;-55
2021/11/27 04:16:05;;;;;;;18.27;13.23;;;205.40;1894.40;;;;;;5074819;28;20081;-55
2021/11/27 04:18:31;;;;;;;17.75;12.85;;;205.40;1894.40;;;;;;5074535;28;20478;-55
2021/11/27 04:20:57;;;;;;;20.40;13.98;;;205.40;1894.40;;;;;;5074479;28;20032;-55
2021/11/27 04:23:23;;;;;;;21.48;13.20;;;205.40;1894.40;;;;;;5074421;28;20108;-55
2021/11/27 04:25:50;;;;;;;18.88;13.27;;;205.40;1894.40;;;;;;5074579;28;20086;-55
2021/11/27 04:28:17;;;;;;;19.75;13.73;;;205.40;1894.40;;;;;;5074695;28;20043;-55
2021/11/27 04:30:43;;;;;;;19.83;13.25;;;205.30;1894.40;;;;;;5074252;28;20037;-55
2021/11/27 04:33:10;;;;;;;22.25;13.48;;;205.30;1920.00;;;;;;5074450;28;20088;-55
2021/11/27 04:35:36;;;;;;;23.58;14.27;;;205.30;1894.40;;;;;;5074311;28;20415;-55
2021/11/27 04:38:03;;;;;;;23.65;15.70;;;205.30;1894.40;;;;;;5074180;28;20024;-55
2021/11/27 04:40:31;;;;;;;23.88;15.70;;;205.30;1920.00;;;;;;5073905;28;20032;-55
2021/11/27 04:42:58;;;;;;;26.67;15.35;;;205.30;1894.40;;;;;;5073595;28;20344;-55
2021/11/27 04:45:25;;;;;;;23.25;14.82;;;205.20;1920.00;;;;;;5074267;28;20099;-55
2021/11/27 04:47:51;;;;;;;23.00;14.98;;;205.30;1920.00;;;;;;5074161;28;20493;-55
2021/11/27 04:50:18;;;;;;;20.33;14.32;;;205.30;1894.40;;;;;;5074043;28;20031;-55
2021/11/27 04:52:44;;;;;;;24.65;16.80;;;205.30;1894.40;;;;;;5074164;28;20025;-55
2021/11/27 04:55:11;;;;;;;34.25;20.98;;;205.30;1920.00;;;;;;5073832;28;20079;-55
2021/11/27 04:57:38;;;;;;;35.75;21.40;;;205.30;1894.40;;;;;;5073963;28;20031;-55
2021/11/27 05:00:09;;;;;;;30.52;19.92;;;205.20;1920.00;;;;;;5073782;28;20029;-55
2021/11/27 05:02:35;;;;;;;31.35;18.10;;;205.30;1894.40;;;;;;5073907;28;20033;-55
2021/11/27 05:05:01;;;;;;;27.02;17.05;;;205.20;1894.40;;;;;;5073790;28;20036;-55
2021/11/27 05:07:26;;;;;;;24.88;16.70;;;205.20;1920.00;;;;;;5073808;28;20016;-53
2021/11/27 05:09:52;;;;;;;24.00;15.95;;;205.20;1894.40;;;;;;5073553;28;20048;-53
2021/11/27 05:12:18;;;;;;;22.65;14.60;;;205.10;1894.40;;;;;;5073637;28;20434;-54
2021/11/27 05:14:43;;;;;;;25.63;15.75;;;205.10;1920.00;;;;;;5073428;28;20119;-54
2021/11/27 05:17:09;;;;;;;26.85;17.27;;;205.10;1894.40;;;;;;5070270;28;20025;-54
2021/11/27 05:19:36;;;;;;;27.42;17.48;;;205.10;1920.00;;;;;;5062858;28;20029;-53
2021/11/27 05:22:03;;;;;;;25.20;17.20;;;205.20;1920.00;;;;;;5064013;28;20025;-54
2021/11/27 05:24:29;;;;;;;24.77;16.88;;;205.10;1920.00;;;;;;5061895;28;20037;-54
2021/11/27 05:26:54;;;;;;;24.48;16.02;;;205.10;1920.00;;;;;;5062251;28;20032;-53
2021/11/27 05:29:22;;;;;;;21.08;14.95;;;205.10;1920.00;;;;;;5069517;28;20040;-55
2021/11/27 05:31:48;;;;;;;20.42;13.77;;;205.10;1920.00;;;;;;5073812;28;20393;-55
2021/11/27 05:36:49;;;;;;;23.13;15.23;;;205.00;1920.00;;;;;;5073603;28;20013;-55
2021/11/27 05:39:14;;;;;;;22.52;14.98;;;205.10;1894.40;;;;;;5073442;28;20536;-55
2021/11/27 05:41:40;;;;;;;26.73;16.88;;;205.10;1920.00;;;;;;5073293;28;20108;-55
2021/11/27 05:44:06;;;;;;;33.90;20.80;;;205.00;1920.00;;;;;;5073491;28;20355;-55
2021/11/27 05:46:32;;;;;;;47.33;29.50;;;205.00;1920.00;;;;;;5073745;28;20172;-55
2021/11/27 05:48:57;;;;;;;49.53;32.38;;;205.00;1920.00;;;;;;5073607;28;20032;-55
2021/11/27 05:51:23;;;;;;;37.17;25.52;;;205.10;1920.00;;;;;;5073546;28;20024;-55
2021/11/27 05:53:49;;;;;;;33.28;22.95;;;205.10;1894.40;;;;;;5076212;28;20060;-55
2021/11/27 05:56:15;;;;;;;31.17;22.27;;;205.00;1945.60;;;;;;5077434;28;20407;-55
2021/11/27 05:58:40;;;;;;;35.90;21.05;;;205.10;1920.00;;;;;;5077246;28;20347;-55
2021/11/27 06:01:06;;;;;;;37.13;22.77;;;205.10;1945.60;;;;;;5077174;28;20115;-55
2021/11/27 06:03:33;;;;;;;38.65;20.95;;;205.10;1945.60;;;;;;5076999;28;20466;-55
2021/11/27 06:06:00;;;;;;;35.28;19.67;;;205.20;1945.60;;;;;;5077048;28;20472;-55
2021/11/27 06:08:26;;;;;;;38.65;21.20;;;205.20;1945.60;;;;;;5077016;28;20048;-54
2021/11/27 06:10:52;;;;;;;39.13;20.60;;;205.20;1945.60;;;;;;5076738;28;20397;-55
2021/11/27 06:13:18;;;;;;;32.78;19.83;;;205.10;1945.60;;;;;;5077265;28;20033;-55
2021/11/27 06:15:43;;;;;;;30.80;18.35;;;205.10;1945.60;;;;;;5077059;28;20029;-55
2021/11/27 06:18:09;;;;;;;29.77;18.17;;;205.00;1945.60;;;;;;5076811;28;20381;-55
2021/11/27 06:20:35;;;;;;;30.60;19.13;;;205.00;1945.60;;;;;;5076721;28;20044;-54
2021/11/27 06:23:00;;;;;;;33.65;19.77;;;205.00;1945.60;;;;;;5076911;28;20033;-55
2021/11/27 06:25:27;;;;;;;36.53;22.13;;;205.00;1945.60;;;;;;5076639;28;20041;-55
2021/11/27 06:27:53;;;;;;;75.60;39.33;;;204.90;1945.60;;;;;;5076850;28;20024;-55
2021/11/27 06:30:19;;;;;;;84.15;42.47;;;204.90;1945.60;;;;;;5076585;28;20393;-54
2021/11/27 06:32:45;;;;;;;75.65;37.40;;;204.90;1945.60;;;;;;5076338;28;20020;-55
2021/11/27 06:35:11;;;;;;;66.18;32.80;;;204.90;1945.60;;;;;;5076604;28;20081;-55
2021/11/27 06:37:37;;;;;;;53.97;28.90;;;205.00;1971.20;;;;;;5076416;28;20028;-54
2021/11/27 06:40:03;;;;;;;56.45;30.05;;;205.00;1945.60;;;;;;5076444;28;20024;-55
2021/11/27 06:42:29;;;;;;;62.75;33.78;;;205.00;1945.60;;;;;;5076756;28;20029;-54
2021/11/27 06:44:55;;;;;;;69.88;38.17;;;204.90;1945.60;;;;;;5076219;28;20399;-55
2021/11/27 06:47:22;;;;;;;77.22;41.90;;;205.00;1945.60;;;;;;5076448;28;20036;-55
2021/11/27 06:49:50;;;;;;;75.20;44.85;;;205.10;1945.60;;;;;;5076270;28;20028;-55
2021/11/27 06:52:17;;;;;;;76.95;44.08;;;205.20;1920.00;;;;;;5076312;28;20487;-55
2021/11/27 06:54:43;;;;;;;69.63;39.40;;;205.20;1920.00;;;;;;5075923;28;20072;-55
2021/11/27 06:57:09;;;;;;;55.45;33.85;;;205.10;1920.00;;;;;;5076471;28;20462;-54
2021/11/27 06:59:37;;;;;;;52.72;28.45;;;205.10;1945.60;;;;;;5076175;28;20032;-55
2021/11/27 07:02:03;;;;;;;54.53;29.33;;;205.10;1945.60;;;;;;5076187;28;20044;-55
2021/11/27 07:04:29;;;;;;;40.25;25.95;;;205.20;1945.60;;;;;;5069778;28;20043;-54
2021/11/27 07:06:55;;;;;;;47.00;27.30;;;205.20;1920.00;;;;;;5066332;28;20090;-59
2021/11/27 07:09:21;;;;;;;45.88;24.88;;;205.20;1945.60;;;;;;5058527;28;20466;-59
2021/11/27 07:11:47;;;;;;;34.13;22.58;;;205.20;1945.60;;;;;;5062363;28;20502;-55
2021/11/27 07:14:13;;;;;;;59.50;30.02;;;205.30;1920.00;;;;;;5064970;28;20020;-55
2021/11/27 07:16:39;;;;;;;61.83;29.25;;;205.40;1894.40;;;;;;5066257;28;20112;-55
2021/11/27 07:19:05;;;;;;;48.80;26.63;;;205.40;1894.40;;;;;;5058355;28;20033;-58
2021/11/27 07:21:31;;;;;;;40.83;22.75;;;205.40;1894.40;;;;;;5055693;28;20025;-57
2021/11/27 07:23:57;;;;;;;37.47;23.65;;;205.40;1920.00;;;;;;5055443;28;20025;-59
2021/11/27 07:26:23;;;;;;;36.65;22.50;;;205.40;1920.00;;;;;;5055548;28;20032;-57
2021/11/27 07:28:50;;;;;;;34.78;21.10;;;205.50;1894.40;;;;;;5062171;28;20374;-55
2021/11/27 07:31:16;;;;;;;27.77;18.88;;;205.60;1894.40;;;;;;5064034;28;20021;-55
2021/11/27 07:33:42;;;;;;;27.92;17.60;;;205.60;1894.40;;;;;;5062348;28;20035;-55
2021/11/27 07:36:08;;;;;;;29.38;18.52;;;205.50;1894.40;;;;;;5075423;28;20032;-58
2021/11/27 07:38:35;;;;;;;26.73;18.08;;;205.50;1894.40;;;;;;5069019;28;20025;-56
2021/11/27 07:41:02;;;;;;;26.80;17.95;;;205.40;1920.00;;;;;;5055157;28;20021;-58
2021/11/27 07:43:28;;;;;;;30.02;17.65;;;205.30;1945.60;;;;;;5055074;28;20021;-58
2021/11/27 07:45:54;;;;;;;28.13;19.25;;;205.40;1920.00;;;;;;5055018;28;20024;-57
2021/11/27 07:48:20;;;;;;;32.72;20.77;;;205.40;1920.00;;;;;;5054316;28;20478;-57
2021/11/27 07:50:46;;;;;;;29.23;19.23;;;205.40;1920.00;;;;;;5055136;28;20033;-58
2021/11/27 07:53:11;;;;;;;33.83;20.40;;;205.40;1971.20;;;;;;5055018;28;20214;-58
2021/11/27 07:55:37;;;;;;;34.45;21.58;;;205.40;1945.60;;;;;;5092751;28;20397;-58
2021/11/27 07:58:03;;;;;;;30.25;19.67;;;205.30;1945.60;;;;;;5095135;28;20115;-57
2021/11/27 08:00:29;;;;;;;30.65;19.05;;;205.40;1945.60;;;;;;5095375;28;20066;-58
2021/11/27 08:02:54;;;;;;;27.35;18.80;;;205.40;1945.60;;;;;;5095296;28;20035;-58
2021/11/27 08:05:20;;;;;;;31.13;19.98;;;205.40;1945.60;;;;;;5094977;28;20043;-57
2021/11/27 08:07:46;;;;;;;30.75;18.98;;;205.30;1945.60;;;;;;5094915;28;20059;-57
2021/11/27 08:10:14;;;;;;;33.58;20.92;;;205.40;1971.20;;;;;;5094882;28;20028;-57
2021/11/27 08:12:40;;;;;;;27.38;17.27;;;205.30;1971.20;;;;;;5095185;28;20420;-58
2021/11/27 08:15:07;;;;;;;25.85;17.88;;;205.30;1971.20;;;;;;5094709;28;20027;-57
2021/11/27 08:17:35;;;;;;;22.42;15.95;;;205.30;1971.20;;;;;;5094383;28;20054;-57
2021/11/27 08:20:02;;;;;;;26.50;17.40;;;205.30;1971.20;;;;;;5094605;28;20035;-58
2021/11/27 08:22:28;;;;;;;37.88;24.02;;;205.40;1996.80;;;;;;5095005;28;20381;-58
2021/11/27 08:24:54;;;;;;;39.80;24.85;;;205.40;1996.80;;;;;;5094718;28;20032;-57
2021/11/27 08:27:21;;;;;;;28.13;18.10;;;205.40;1996.80;;;;;;5094270;28;20104;-58
2021/11/27 08:29:46;;;;;;;25.70;17.35;;;205.40;1996.80;;;;;;5094535;28;20031;-57
2021/11/27 08:32:12;;;;;;;32.83;20.95;;;205.40;2022.40;;;;;;5094308;28;20107;-58
2021/11/27 08:34:38;;;;;;;34.53;22.42;;;205.40;2022.40;;;;;;5094738;28;20065;-58
2021/11/27 08:37:04;;;;;;;26.15;18.05;;;205.40;2022.40;;;;;;5094660;28;20020;-57
2021/11/27 08:39:29;;;;;;;25.63;16.77;;;205.50;1996.80;;;;;;5093616;28;20420;-58
2021/11/27 08:41:55;;;;;;;26.13;16.63;;;205.50;1996.80;;;;;;5094775;28;20407;-58
2021/11/27 08:44:21;;;;;;;25.10;17.23;;;205.60;1996.80;;;;;;5094184;28;20028;-58
2021/11/27 08:46:47;;;;;;;24.70;16.75;;;205.70;1971.20;;;;;;5094526;28;20100;-58
2021/11/27 08:49:12;;;;;;;25.15;16.17;;;205.70;1996.80;;;;;;5094191;28;20024;-57
2021/11/27 08:51:40;;;;;;;30.00;19.08;;;205.70;1971.20;;;;;;5094178;28;20028;-58
2021/11/27 08:54:07;;;;;;;23.67;15.23;;;230.40;1996.80;;;;;;5093977;28;20102;-58
2021/11/27 08:56:33;;;;;;;21.92;13.88;;;230.40;1996.80;;;;;;5094101;28;20416;-57
2021/11/27 08:58:59;;;;;;;21.38;14.50;;;230.40;1971.20;;;;;;5094475;28;20066;-57
2021/11/27 09:01:25;;;;;;;19.67;13.88;;;230.40;1971.20;;;;;;5093974;28;20448;-58
2021/11/27 09:03:51;;;;;;;22.88;15.23;;;230.50;1971.20;;;;;;5094167;28;20110;-57
2021/11/27 09:06:17;;;;;;;22.17;15.00;;;230.50;1971.20;;;;;;5093906;28;20021;-58
2021/11/27 09:08:44;;;;;;;26.55;17.48;;;230.60;1971.20;;;;;;5094050;28;20031;-56
2021/11/27 09:11:14;;;;;;;30.00;18.25;;;230.60;1971.20;;;;;;5094182;28;20024;-57
2021/11/27 09:13:40;;;;;;;26.85;16.25;;;230.70;1971.20;;;;;;5093984;28;20055;-58
2021/11/27 09:16:07;;;;;;;30.60;19.88;;;230.70;1971.20;;;;;;5093985;28;20031;-58
2021/11/27 09:18:33;;;;;;;29.85;19.23;;;230.70;1996.80;;;;;;5093788;28;20384;-57
2021/11/27 09:21:00;;;;;;;34.25;21.58;;;230.80;1996.80;;;;;;5093920;28;20079;-58
2021/11/27 09:23:25;;;;;;;33.65;21.55;;;230.90;2022.40;;;;;;5093765;28;20456;-57
2021/11/27 09:25:51;;;;;;;29.58;19.63;;;230.90;1996.80;;;;;;5093856;28;20063;-57
2021/11/27 09:28:18;;;;;;;42.40;26.05;;;230.90;1996.80;;;;;;5093235;28;20051;-57
2021/11/27 09:30:44;;;;;;;45.97;29.38;;;231.00;1996.80;;;;;;5093788;28;20059;-58
2021/11/27 09:33:10;;;;;;;33.50;19.08;;;231.10;1996.80;;;;;;5093747;28;20016;-58
2021/11/27 09:35:36;;;;;;;54.53;27.02;;;231.00;1996.80;;;;;;5093636;28;20047;-58
2021/11/27 09:38:02;;;;;;;55.10;27.90;;;231.20;1996.80;;;;;;5093755;28;20470;-58
2021/11/27 09:40:37;;;;;;;54.13;27.30;;;231.20;1996.80;;;;;;5093595;28;20067;-58
2021/11/27 09:43:04;;;;;;;47.05;26.27;;;231.20;2022.40;;;;;;5094175;28;20049;-58
2021/11/27 09:45:31;;;;;;;34.67;20.48;;;256.00;1996.80;;;;;;5093641;28;20032;-58
2021/11/27 09:47:57;;;;;;;38.05;23.98;;;256.00;1996.80;;;;;;5093752;28;20060;-58
2021/11/27 09:50:24;;;;;;;46.50;27.33;;;256.00;1971.20;;;;;;5093668;28;20073;-57
2021/11/27 09:52:50;;;;;;;45.72;27.42;;;256.10;1996.80;;;;;;5093664;28;20031;-58
2021/11/27 09:55:17;;;;;;;42.40;24.30;;;256.10;1996.80;;;;;;5093241;28;20059;-58
2021/11/27 09:57:44;;;;;;;44.28;24.48;;;256.20;1996.80;;;;;;5093602;28;20044;-58
2021/11/27 10:00:11;;;;;;;45.03;24.42;;;256.20;1996.80;;;;;;5093282;28;20032;-58
2021/11/27 10:02:40;;;;;;;30.58;18.23;;;256.30;1996.80;;;;;;5093379;28;20016;-58
2021/11/27 10:05:08;;;;;;;32.20;18.63;;;256.30;1996.80;;;;;;5093948;28;20031;-58
2021/11/27 10:07:35;;;;;;;33.88;19.15;;;256.40;1996.80;;;;;;5093362;28;20050;-57
2021/11/27 10:10:01;;;;;;;31.95;19.15;;;256.40;2022.40;;;;;;5093162;28;20047;-58
2021/11/27 10:12:28;;;;;;;36.85;20.75;;;256.60;2022.40;;;;;;5093463;28;20030;-58
2021/11/27 10:14:54;;;;;;;24.30;15.98;;;256.60;1996.80;;;;;;5093600;28;20429;-58
2021/11/27 10:17:23;;;;;;;23.40;15.15;;;256.70;1996.80;;;;;;5093220;28;20059;-58
2021/11/27 10:20:00;;;;;;;23.05;15.07;;;256.80;1996.80;;;;;;5093263;28;20020;-58
2021/11/27 10:22:48;;;;;;;25.92;17.13;;;256.90;1996.80;;;;;;5093243;28;20020;-58
2021/11/27 10:25:46;;;;;;;27.08;15.35;;;256.90;1996.80;;;;;;5092697;28;20046;-58
2021/11/27 10:28:18;;;;;;;21.65;14.52;;;281.60;1996.80;;;;;;5011210;28;20045;-58
2021/11/27 10:30:58;;;;;;;28.58;16.55;;;281.60;1996.80;;;;;;5011153;28;20064;-57
2021/11/27 10:33:26;;;;;;;32.22;17.85;;;281.70;1996.80;;;;;;5011586;28;20080;-58
2021/11/27 10:35:54;;;;;;;27.13;15.50;;;281.70;1996.80;;;;;;5011282;28;20408;-58
2021/11/27 10:38:20;;;;;;;23.67;14.07;;;281.80;1996.80;;;;;;5011236;28;20065;-58
2021/11/27 10:40:59;;;;;;;25.33;14.80;;;281.90;2022.40;;;;;;5013539;28;20541;-58
2021/11/27 10:43:25;;;;;;;32.13;18.52;;;282.00;1996.80;;;;;;5014470;28;20038;-57
2021/11/27 10:45:51;;;;;;;31.83;18.58;;;282.10;2022.40;;;;;;5014649;28;20419;-58
2021/11/27 10:48:18;;;;;;;28.30;18.27;;;282.10;1996.80;;;;;;5014566;28;20022;-58
2021/11/27 10:50:47;;;;;;;32.45;18.77;;;282.20;2022.40;;;;;;5014288;28;20088;-58
2021/11/27 10:53:18;;;;;;;33.22;20.88;;;282.20;1996.80;;;;;;5014324;28;20052;-57
2021/11/27 10:55:44;;;;;;;31.23;20.55;;;282.30;1996.80;;;;;;5013864;28;20050;-58
2021/11/27 10:58:12;;;;;;;31.35;20.00;;;282.30;2022.40;;;;;;5014424;28;20033;-58
2021/11/27 11:00:40;;;;;;;27.55;17.98;;;282.40;1996.80;;;;;;5014162;28;20045;-58
2021/11/27 11:03:36;;;;;;;30.73;19.35;;;282.50;1996.80;;;;;;5033006;28;20473;-58
2021/11/27 11:06:22;;;;;;;24.90;17.85;;;282.40;1971.20;;;;;;5096227;28;20058;-58
2021/11/27 11:08:49;;;;;;;31.15;19.38;;;282.40;1971.20;;;;;;5095844;28;20103;-58
2021/11/27 11:11:20;;;;;;;28.90;20.10;;;282.40;1971.20;;;;;;5096447;28;20380;-58
2021/11/27 11:13:54;;;;;;;25.45;18.33;;;282.40;1971.20;;;;;;5096035;28;20052;-58
2021/11/27 11:16:31;;;;;;;27.92;20.85;;;282.40;1971.20;;;;;;5096147;28;20039;-58
2021/11/27 11:19:21;;;;;;;29.90;20.20;;;282.50;1971.20;;;;;;5077375;28;20024;-58
2021/11/27 11:22:09;;;;;;;26.73;20.70;;;307.20;1996.80;;;;;;5095864;28;20028;-58
2021/11/27 11:24:43;;;;;;;32.58;21.20;;;307.20;1996.80;;;;;;5095810;28;20548;-58
2021/11/27 11:27:09;;;;;;;33.90;22.55;;;307.20;1996.80;;;;;;5095717;28;20066;-57
2021/11/27 11:29:47;;;;;;;32.60;23.90;;;307.20;1996.80;;;;;;5096301;28;20474;-58
2021/11/27 11:32:15;;;;;;;32.22;21.60;;;282.50;1971.20;;;;;;5095647;28;20024;-58
2021/11/27 11:34:42;;;;;;;27.45;18.95;;;282.50;1971.20;;;;;;5095701;28;20114;-58
2021/11/27 11:37:08;;;;;;;26.45;19.83;;;282.50;1945.60;;;;;;5095804;28;20104;-58
2021/11/27 11:39:36;;;;;;;36.08;21.95;;;282.40;1971.20;;;;;;5095558;28;20024;-58
2021/11/27 11:42:02;;;;;;;37.65;24.23;;;282.40;1971.20;;;;;;5095546;28;20107;-58
2021/11/27 11:44:29;;;;;;;33.83;21.50;;;282.40;1971.20;;;;;;5095706;28;20111;-58
2021/11/27 11:46:55;;;;;;;34.55;22.70;;;282.40;1971.20;;;;;;5095589;28;20031;-58
2021/11/27 11:49:21;;;;;;;28.65;19.52;;;282.30;1971.20;;;;;;5095382;28;20028;-58
2021/11/27 11:51:56;;;;;;;25.58;17.27;;;282.40;1996.80;;;;;;5094853;28;20024;-58
2021/11/27 11:54:24;;;;;;;27.23;18.50;;;282.40;1996.80;;;;;;5094794;28;20048;-57
2021/11/27 11:57:11;;;;;;;34.03;23.48;;;282.30;1996.80;;;;;;5095131;28;20016;-58
2021/11/27 11:59:39;;;;;;;29.27;19.92;;;282.30;1996.80;;;;;;5095024;28;20070;-57
2021/11/27 12:02:28;;;;;;;39.83;26.58;;;282.30;1996.80;;;;;;5095152;28;20036;-57
2021/11/27 12:05:05;;;;;;;36.03;25.35;;;282.30;1996.80;;;;;;5095120;28;20393;-58